sensor_id;sensor_type;location;lat;lon;timestamp;pressure;altitude;pressure_sealevel;temperature;humidity
6389;BME280;3227;42.654;23.360;2023-02-03T00:00:38;94613.28;;;5.29;65.90
6389;BME280;3227;42.654;23.360;2023-02-03T00:03:05;94625.13;;;5.28;68.56
6389;BME280;3227;42.654;23.360;2023-02-03T00:05:33;94623.31;;;5.23;67.43
6389;BME280;3227;42.654;23.360;2023-02-03T00:08:02;94583.00;;;4.99;67.92
6389;BME280;3227;42.654;23.360;2023-02-03T00:10:32;94624.09;;;5.19;68.27
6389;BME280;3227;42.654;23.360;2023-02-03T00:12:59;94634.91;;;5.10;69.68
6389;BME280;3227;42.654;23.360;2023-02-03T00:15:26;94630.78;;;5.15;70.07
6389;BME280;3227;42.654;23.360;2023-02-03T00:17:53;94628.31;;;5.20;69.81
6389;BME280;3227;42.654;23.360;2023-02-03T00:20:20;94612.75;;;5.05;70.33
6389;BME280;3227;42.654;23.360;2023-02-03T00:22:46;94577.41;;;4.75;70.77
6389;BME280;3227;42.654;23.360;2023-02-03T00:25:13;94633.94;;;5.05;70.88
6389;BME280;3227;42.654;23.360;2023-02-03T00:27:52;94638.09;;;5.03;71.73
6389;BME280;3227;42.654;23.360;2023-02-03T00:30:18;94634.69;;;5.01;72.26
6389;BME280;3227;42.654;23.360;2023-02-03T00:32:45;94643.56;;;5.18;71.63
6389;BME280;3227;42.654;23.360;2023-02-03T00:35:12;94641.19;;;5.27;71.22
6389;BME280;3227;42.654;23.360;2023-02-03T00:37:39;94647.13;;;5.28;72.24
6389;BME280;3227;42.654;23.360;2023-02-03T00:40:06;94657.16;;;5.22;72.59
6389;BME280;3227;42.654;23.360;2023-02-03T00:42:33;94621.03;;;4.96;72.11
6389;BME280;3227;42.654;23.360;2023-02-03T00:45:01;94656.13;;;5.14;72.93
6389;BME280;3227;42.654;23.360;2023-02-03T00:47:28;94652.88;;;5.19;72.97
6389;BME280;3227;42.654;23.360;2023-02-03T00:49:55;94662.19;;;5.19;72.92
6389;BME280;3227;42.654;23.360;2023-02-03T00:52:22;94641.63;;;5.08;73.60
6389;BME280;3227;42.654;23.360;2023-02-03T00:54:49;94662.25;;;5.22;73.78
6389;BME280;3227;42.654;23.360;2023-02-03T00:57:15;94658.88;;;5.23;73.71
6389;BME280;3227;42.654;23.360;2023-02-03T00:59:42;94671.75;;;5.30;73.66
6389;BME280;3227;42.654;23.360;2023-02-03T01:02:10;94662.44;;;5.31;72.98
6389;BME280;3227;42.654;23.360;2023-02-03T01:04:37;94670.09;;;5.32;72.87
6389;BME280;3227;42.654;23.360;2023-02-03T01:07:04;94683.56;;;5.28;72.72
6389;BME280;3227;42.654;23.360;2023-02-03T01:09:32;94677.56;;;5.25;72.90
6389;BME280;3227;42.654;23.360;2023-02-03T01:11:59;94685.28;;;5.29;73.19
6389;BME280;3227;42.654;23.360;2023-02-03T01:14:26;94676.88;;;5.32;74.15
6389;BME280;3227;42.654;23.360;2023-02-03T01:16:53;94576.25;;;4.62;74.93
6389;BME280;3227;42.654;23.360;2023-02-03T01:19:21;94674.91;;;5.19;76.00
6389;BME280;3227;42.654;23.360;2023-02-03T01:21:48;94667.81;;;5.06;75.62
6389;BME280;3227;42.654;23.360;2023-02-03T01:24:15;94674.78;;;5.14;75.18
6389;BME280;3227;42.654;23.360;2023-02-03T01:26:42;94612.16;;;4.79;75.25
6389;BME280;3227;42.654;23.360;2023-02-03T01:29:09;94632.56;;;4.82;75.11
6389;BME280;3227;42.654;23.360;2023-02-03T01:31:39;94658.28;;;4.97;74.48
6389;BME280;3227;42.654;23.360;2023-02-03T01:34:07;94660.16;;;5.04;74.17
6389;BME280;3227;42.654;23.360;2023-02-03T01:36:38;94594.00;;;4.61;73.23
6389;BME280;3227;42.654;23.360;2023-02-03T01:39:05;94632.47;;;4.77;72.47
6389;BME280;3227;42.654;23.360;2023-02-03T01:41:34;94673.34;;;4.89;73.18
6389;BME280;3227;42.654;23.360;2023-02-03T01:44:30;94676.44;;;4.76;73.15
6389;BME280;3227;42.654;23.360;2023-02-03T01:46:49;94683.91;;;4.72;73.52
6389;BME280;3227;42.654;23.360;2023-02-03T01:49:20;94685.97;;;4.86;74.11
6389;BME280;3227;42.654;23.360;2023-02-03T01:51:50;94688.63;;;4.91;73.07
6389;BME280;3227;42.654;23.360;2023-02-03T01:54:19;94686.88;;;4.88;72.60
6389;BME280;3227;42.654;23.360;2023-02-03T01:56:52;94679.56;;;4.66;73.43
6389;BME280;3227;42.654;23.360;2023-02-03T01:59:21;94661.16;;;4.40;73.41
6389;BME280;3227;42.654;23.360;2023-02-03T02:01:50;94456.72;;;3.09;74.26
6389;BME280;3227;42.654;23.360;2023-02-03T02:04:19;94687.00;;;4.58;75.01
6389;BME280;3227;42.654;23.360;2023-02-03T02:06:49;94677.25;;;4.41;74.00
6389;BME280;3227;42.654;23.360;2023-02-03T02:09:16;94683.34;;;4.49;74.09
6389;BME280;3227;42.654;23.360;2023-02-03T02:11:43;94670.00;;;4.23;73.88
6389;BME280;3227;42.654;23.360;2023-02-03T02:14:10;94698.31;;;4.38;75.11
6389;BME280;3227;42.654;23.360;2023-02-03T02:16:41;94695.91;;;4.43;74.35
6389;BME280;3227;42.654;23.360;2023-02-03T02:19:28;94688.34;;;4.46;74.37
6389;BME280;3227;42.654;23.360;2023-02-03T02:22:09;94697.13;;;4.58;73.65
6389;BME280;3227;42.654;23.360;2023-02-03T02:25:01;94696.81;;;4.46;73.75
6389;BME280;3227;42.654;23.360;2023-02-03T02:27:47;94700.16;;;4.45;74.53
6389;BME280;3227;42.654;23.360;2023-02-03T02:30:40;94673.44;;;4.25;73.96
6389;BME280;3227;42.654;23.360;2023-02-03T02:33:17;94706.19;;;4.49;73.62
6389;BME280;3227;42.654;23.360;2023-02-03T02:35:56;94709.06;;;4.63;73.27
6389;BME280;3227;42.654;23.360;2023-02-03T02:38:45;94704.94;;;4.33;72.98
6389;BME280;3227;42.654;23.360;2023-02-03T02:41:18;94701.47;;;4.30;73.65
6389;BME280;3227;42.654;23.360;2023-02-03T02:43:52;94720.00;;;4.27;73.63
6389;BME280;3227;42.654;23.360;2023-02-03T02:46:25;94708.88;;;4.22;73.61
6389;BME280;3227;42.654;23.360;2023-02-03T02:49:01;94711.16;;;4.13;74.39
6389;BME280;3227;42.654;23.360;2023-02-03T02:51:31;94692.72;;;4.18;74.21
6389;BME280;3227;42.654;23.360;2023-02-03T02:54:01;94707.34;;;4.29;73.15
6389;BME280;3227;42.654;23.360;2023-02-03T02:56:31;94702.31;;;4.30;72.65
6389;BME280;3227;42.654;23.360;2023-02-03T02:59:01;94680.94;;;4.20;72.25
6389;BME280;3227;42.654;23.360;2023-02-03T03:01:30;94709.44;;;4.43;72.08
6389;BME280;3227;42.654;23.360;2023-02-03T03:03:59;94705.75;;;4.32;73.04
6389;BME280;3227;42.654;23.360;2023-02-03T03:06:31;94683.25;;;4.13;71.49
6389;BME280;3227;42.654;23.360;2023-02-03T03:09:02;94705.72;;;4.31;71.97
6389;BME280;3227;42.654;23.360;2023-02-03T03:11:32;94714.84;;;4.24;71.16
6389;BME280;3227;42.654;23.360;2023-02-03T03:14:03;94677.47;;;3.86;71.66
6389;BME280;3227;42.654;23.360;2023-02-03T03:16:34;94712.59;;;4.03;71.67
6389;BME280;3227;42.654;23.360;2023-02-03T03:19:06;94724.44;;;4.04;72.21
6389;BME280;3227;42.654;23.360;2023-02-03T03:21:36;94724.59;;;4.09;71.29
6389;BME280;3227;42.654;23.360;2023-02-03T03:24:08;94726.75;;;3.97;71.49
6389;BME280;3227;42.654;23.360;2023-02-03T03:26:40;94719.34;;;4.03;70.01
6389;BME280;3227;42.654;23.360;2023-02-03T03:29:13;94729.19;;;3.92;71.01
6389;BME280;3227;42.654;23.360;2023-02-03T03:31:42;94721.38;;;3.85;72.01
6389;BME280;3227;42.654;23.360;2023-02-03T03:34:12;94702.22;;;3.94;70.56
6389;BME280;3227;42.654;23.360;2023-02-03T03:36:41;94726.97;;;4.03;70.53
6389;BME280;3227;42.654;23.360;2023-02-03T03:39:14;94735.75;;;4.15;68.64
6389;BME280;3227;42.654;23.360;2023-02-03T03:41:52;94704.91;;;4.00;69.52
6389;BME280;3227;42.654;23.360;2023-02-03T03:44:26;94733.69;;;4.02;69.00
6389;BME280;3227;42.654;23.360;2023-02-03T03:47:00;94725.53;;;3.82;68.99
6389;BME280;3227;42.654;23.360;2023-02-03T03:49:33;94757.78;;;3.87;69.69
6389;BME280;3227;42.654;23.360;2023-02-03T03:52:05;94748.91;;;4.02;69.84
6389;BME280;3227;42.654;23.360;2023-02-03T03:54:33;94736.97;;;3.98;69.75
6389;BME280;3227;42.654;23.360;2023-02-03T03:57:06;94742.19;;;4.04;69.55
6389;BME280;3227;42.654;23.360;2023-02-03T03:59:40;94751.31;;;3.98;68.98
6389;BME280;3227;42.654;23.360;2023-02-03T04:02:11;94742.28;;;4.07;68.85
6389;BME280;3227;42.654;23.360;2023-02-03T04:04:40;94748.81;;;3.99;68.70
6389;BME280;3227;42.654;23.360;2023-02-03T04:07:08;94768.53;;;3.79;69.89
6389;BME280;3227;42.654;23.360;2023-02-03T04:09:35;94769.88;;;3.97;69.64
6389;BME280;3227;42.654;23.360;2023-02-03T04:12:03;94771.84;;;4.07;70.27
6389;BME280;3227;42.654;23.360;2023-02-03T04:14:32;94764.84;;;3.98;69.19
6389;BME280;3227;42.654;23.360;2023-02-03T04:16:59;94775.19;;;4.06;69.71
6389;BME280;3227;42.654;23.360;2023-02-03T04:19:26;94773.69;;;4.12;69.62
6389;BME280;3227;42.654;23.360;2023-02-03T04:21:54;94783.66;;;4.06;70.04
6389;BME280;3227;42.654;23.360;2023-02-03T04:24:21;94781.34;;;4.14;70.23
6389;BME280;3227;42.654;23.360;2023-02-03T04:26:48;94811.91;;;4.18;69.70
6389;BME280;3227;42.654;23.360;2023-02-03T04:29:15;94808.91;;;4.32;69.91
6389;BME280;3227;42.654;23.360;2023-02-03T04:31:42;94804.94;;;4.41;69.17
6389;BME280;3227;42.654;23.360;2023-02-03T04:34:09;94808.28;;;4.40;68.99
6389;BME280;3227;42.654;23.360;2023-02-03T04:36:36;94806.81;;;4.48;68.35
6389;BME280;3227;42.654;23.360;2023-02-03T04:39:04;94811.13;;;4.51;68.52
6389;BME280;3227;42.654;23.360;2023-02-03T04:41:30;94810.94;;;4.45;68.50
6389;BME280;3227;42.654;23.360;2023-02-03T04:43:57;94816.06;;;4.46;67.84
6389;BME280;3227;42.654;23.360;2023-02-03T04:46:24;94827.88;;;4.46;68.31
6389;BME280;3227;42.654;23.360;2023-02-03T04:48:51;94811.78;;;4.44;67.92
6389;BME280;3227;42.654;23.360;2023-02-03T04:51:17;94826.97;;;4.42;68.87
6389;BME280;3227;42.654;23.360;2023-02-03T04:53:44;94828.69;;;4.43;68.81
6389;BME280;3227;42.654;23.360;2023-02-03T04:56:12;94822.88;;;4.47;68.99
6389;BME280;3227;42.654;23.360;2023-02-03T04:58:40;94800.44;;;4.31;68.10
6389;BME280;3227;42.654;23.360;2023-02-03T05:01:08;94819.34;;;4.42;67.74
6389;BME280;3227;42.654;23.360;2023-02-03T05:03:35;94837.81;;;4.38;68.67
6389;BME280;3227;42.654;23.360;2023-02-03T05:06:03;94798.13;;;4.09;68.58
6389;BME280;3227;42.654;23.360;2023-02-03T05:08:30;94837.00;;;4.39;68.72
6389;BME280;3227;42.654;23.360;2023-02-03T05:10:57;94841.81;;;4.30;69.08
6389;BME280;3227;42.654;23.360;2023-02-03T05:13:25;94847.97;;;4.38;68.61
6389;BME280;3227;42.654;23.360;2023-02-03T05:15:52;94845.38;;;4.35;68.10
6389;BME280;3227;42.654;23.360;2023-02-03T05:18:18;94847.13;;;4.38;68.23
6389;BME280;3227;42.654;23.360;2023-02-03T05:20:45;94851.81;;;4.24;67.92
6389;BME280;3227;42.654;23.360;2023-02-03T05:23:12;94858.72;;;4.30;68.32
6389;BME280;3227;42.654;23.360;2023-02-03T05:25:39;94861.53;;;4.39;68.12
6389;BME280;3227;42.654;23.360;2023-02-03T05:28:05;94863.25;;;4.40;68.42
6389;BME280;3227;42.654;23.360;2023-02-03T05:30:33;94865.84;;;4.41;68.18
6389;BME280;3227;42.654;23.360;2023-02-03T05:33:00;94864.09;;;4.40;68.45
6389;BME280;3227;42.654;23.360;2023-02-03T05:35:27;94856.59;;;4.45;68.69
6389;BME280;3227;42.654;23.360;2023-02-03T05:37:54;94865.22;;;4.50;68.13
6389;BME280;3227;42.654;23.360;2023-02-03T05:40:21;94849.84;;;4.44;68.01
6389;BME280;3227;42.654;23.360;2023-02-03T05:43:05;94857.25;;;4.36;68.42
6389;BME280;3227;42.654;23.360;2023-02-03T05:45:34;94807.50;;;4.13;68.59
6389;BME280;3227;42.654;23.360;2023-02-03T05:48:01;94839.66;;;4.14;68.00
6389;BME280;3227;42.654;23.360;2023-02-03T05:50:28;94869.56;;;4.24;69.03
6389;BME280;3227;42.654;23.360;2023-02-03T05:52:57;94876.53;;;4.31;68.99
6389;BME280;3227;42.654;23.360;2023-02-03T05:55:24;94879.06;;;4.31;69.04
6389;BME280;3227;42.654;23.360;2023-02-03T05:57:51;94879.22;;;4.37;68.85
6389;BME280;3227;42.654;23.360;2023-02-03T06:00:20;94814.47;;;3.90;67.81
6389;BME280;3227;42.654;23.360;2023-02-03T06:02:51;94887.13;;;4.18;68.46
6389;BME280;3227;42.654;23.360;2023-02-03T06:05:18;94875.34;;;4.20;69.62
6389;BME280;3227;42.654;23.360;2023-02-03T06:07:45;94885.19;;;4.09;69.81
6389;BME280;3227;42.654;23.360;2023-02-03T06:10:12;94891.94;;;4.09;68.54
6389;BME280;3227;42.654;23.360;2023-02-03T06:12:39;94888.13;;;3.95;69.08
6389;BME280;3227;42.654;23.360;2023-02-03T06:15:07;94864.19;;;3.85;69.71
6389;BME280;3227;42.654;23.360;2023-02-03T06:17:34;94879.00;;;4.30;68.92
6389;BME280;3227;42.654;23.360;2023-02-03T06:20:02;94847.16;;;4.09;67.99
6389;BME280;3227;42.654;23.360;2023-02-03T06:22:29;94890.00;;;4.58;67.33
6389;BME280;3227;42.654;23.360;2023-02-03T06:24:56;94882.00;;;4.75;66.77
6389;BME280;3227;42.654;23.360;2023-02-03T06:27:23;94868.34;;;5.03;65.33
6389;BME280;3227;42.654;23.360;2023-02-03T06:29:50;94895.22;;;5.27;63.66
6389;BME280;3227;42.654;23.360;2023-02-03T06:32:17;94912.66;;;5.47;63.94
6389;BME280;3227;42.654;23.360;2023-02-03T06:34:43;94911.19;;;5.55;61.55
6389;BME280;3227;42.654;23.360;2023-02-03T06:37:12;94913.88;;;5.61;62.08
6389;BME280;3227;42.654;23.360;2023-02-03T06:39:38;94908.81;;;5.62;61.12
6389;BME280;3227;42.654;23.360;2023-02-03T06:42:06;94924.41;;;5.74;61.59
6389;BME280;3227;42.654;23.360;2023-02-03T06:44:32;94912.94;;;5.90;60.77
6389;BME280;3227;42.654;23.360;2023-02-03T06:46:59;94925.19;;;6.06;60.23
6389;BME280;3227;42.654;23.360;2023-02-03T06:49:27;94929.72;;;6.20;58.97
6389;BME280;3227;42.654;23.360;2023-02-03T06:51:54;94903.41;;;6.19;59.05
6389;BME280;3227;42.654;23.360;2023-02-03T06:54:22;94939.44;;;6.37;57.78
6389;BME280;3227;42.654;23.360;2023-02-03T06:56:49;94924.47;;;6.49;57.53
6389;BME280;3227;42.654;23.360;2023-02-03T06:59:16;94926.19;;;6.52;56.38
6389;BME280;3227;42.654;23.360;2023-02-03T07:01:43;94920.00;;;6.39;56.90
6389;BME280;3227;42.654;23.360;2023-02-03T07:04:09;94939.06;;;6.21;57.05
6389;BME280;3227;42.654;23.360;2023-02-03T07:06:36;94924.59;;;6.18;56.95
6389;BME280;3227;42.654;23.360;2023-02-03T07:09:04;94900.25;;;5.92;57.11
6389;BME280;3227;42.654;23.360;2023-02-03T07:11:32;94917.41;;;6.00;57.54
6389;BME280;3227;42.654;23.360;2023-02-03T07:13:59;94899.41;;;5.91;57.49
6389;BME280;3227;42.654;23.360;2023-02-03T07:16:26;94902.03;;;5.96;57.48
6389;BME280;3227;42.654;23.360;2023-02-03T07:18:53;94866.25;;;5.88;58.79
6389;BME280;3227;42.654;23.360;2023-02-03T07:21:20;94895.06;;;6.25;57.00
6389;BME280;3227;42.654;23.360;2023-02-03T07:23:49;94907.81;;;6.26;57.46
6389;BME280;3227;42.654;23.360;2023-02-03T07:26:19;94895.38;;;6.38;56.84
6389;BME280;3227;42.654;23.360;2023-02-03T07:28:48;94914.25;;;6.48;55.93
6389;BME280;3227;42.654;23.360;2023-02-03T07:31:16;94921.09;;;6.51;55.22
6389;BME280;3227;42.654;23.360;2023-02-03T07:33:44;94924.22;;;6.39;54.75
6389;BME280;3227;42.654;23.360;2023-02-03T07:36:10;94821.50;;;5.59;56.20
6389;BME280;3227;42.654;23.360;2023-02-03T07:38:37;94915.56;;;6.31;55.18
6389;BME280;3227;42.654;23.360;2023-02-03T07:41:04;94925.91;;;6.38;55.96
6389;BME280;3227;42.654;23.360;2023-02-03T07:43:31;94925.88;;;6.37;55.57
6389;BME280;3227;42.654;23.360;2023-02-03T07:45:59;94942.72;;;6.32;55.57
6389;BME280;3227;42.654;23.360;2023-02-03T07:48:27;94929.09;;;6.30;55.48
6389;BME280;3227;42.654;23.360;2023-02-03T07:50:54;94939.44;;;6.37;54.96
6389;BME280;3227;42.654;23.360;2023-02-03T07:53:20;94952.09;;;6.33;54.63
6389;BME280;3227;42.654;23.360;2023-02-03T07:55:47;94928.75;;;6.15;55.39
6389;BME280;3227;42.654;23.360;2023-02-03T07:58:14;94940.97;;;6.29;56.07
6389;BME280;3227;42.654;23.360;2023-02-03T08:00:41;94807.09;;;5.59;56.21
6389;BME280;3227;42.654;23.360;2023-02-03T08:03:09;94943.22;;;6.55;55.04
6389;BME280;3227;42.654;23.360;2023-02-03T08:05:36;94949.19;;;6.55;54.79
6389;BME280;3227;42.654;23.360;2023-02-03T08:08:03;94952.34;;;6.45;54.36
6389;BME280;3227;42.654;23.360;2023-02-03T08:10:30;94953.81;;;6.35;55.60
6389;BME280;3227;42.654;23.360;2023-02-03T08:12:57;94952.44;;;6.48;55.29
6389;BME280;3227;42.654;23.360;2023-02-03T08:15:24;94958.31;;;6.45;54.52
6389;BME280;3227;42.654;23.360;2023-02-03T08:17:51;94959.50;;;6.61;55.58
6389;BME280;3227;42.654;23.360;2023-02-03T08:20:19;94976.16;;;6.47;55.26
6389;BME280;3227;42.654;23.360;2023-02-03T08:22:46;94967.28;;;6.30;55.01
6389;BME280;3227;42.654;23.360;2023-02-03T08:25:13;94970.16;;;6.45;56.03
6389;BME280;3227;42.654;23.360;2023-02-03T08:27:40;94968.91;;;6.64;55.73
6389;BME280;3227;42.654;23.360;2023-02-03T08:30:11;94962.50;;;6.84;53.50
6389;BME280;3227;42.654;23.360;2023-02-03T08:32:38;94969.63;;;6.58;53.81
6389;BME280;3227;42.654;23.360;2023-02-03T08:35:06;94968.00;;;6.62;53.62
6389;BME280;3227;42.654;23.360;2023-02-03T08:37:34;94978.34;;;6.69;54.05
6389;BME280;3227;42.654;23.360;2023-02-03T08:40:01;94974.97;;;6.70;54.11
6389;BME280;3227;42.654;23.360;2023-02-03T08:42:28;94975.28;;;6.85;54.01
6389;BME280;3227;42.654;23.360;2023-02-03T08:44:55;94976.97;;;6.85;52.73
6389;BME280;3227;42.654;23.360;2023-02-03T08:47:33;94993.06;;;6.82;52.21
6389;BME280;3227;42.654;23.360;2023-02-03T08:50:01;94973.72;;;6.91;52.27
6389;BME280;3227;42.654;23.360;2023-02-03T08:52:28;94984.09;;;7.01;52.13
6389;BME280;3227;42.654;23.360;2023-02-03T08:54:56;94991.09;;;7.10;51.61
6389;BME280;3227;42.654;23.360;2023-02-03T08:57:23;94992.09;;;7.16;51.70
6389;BME280;3227;42.654;23.360;2023-02-03T08:59:50;94996.31;;;7.16;52.51
6389;BME280;3227;42.654;23.360;2023-02-03T09:02:18;94995.97;;;7.01;52.25
6389;BME280;3227;42.654;23.360;2023-02-03T09:04:45;95000.22;;;7.00;52.45
6389;BME280;3227;42.654;23.360;2023-02-03T09:07:13;95000.56;;;7.17;52.53
6389;BME280;3227;42.654;23.360;2023-02-03T09:09:41;95006.75;;;7.28;52.42
6389;BME280;3227;42.654;23.360;2023-02-03T09:12:09;94948.09;;;6.84;52.47
6389;BME280;3227;42.654;23.360;2023-02-03T09:14:37;94990.19;;;7.06;52.52
6389;BME280;3227;42.654;23.360;2023-02-03T09:17:05;94980.78;;;7.04;52.87
6389;BME280;3227;42.654;23.360;2023-02-03T09:19:33;94988.63;;;7.14;53.07
6389;BME280;3227;42.654;23.360;2023-02-03T09:22:00;94974.94;;;7.08;52.78
6389;BME280;3227;42.654;23.360;2023-02-03T09:24:27;94981.84;;;7.15;52.80
6389;BME280;3227;42.654;23.360;2023-02-03T09:26:53;94970.16;;;7.24;52.97
6389;BME280;3227;42.654;23.360;2023-02-03T09:29:22;94974.63;;;7.36;52.62
6389;BME280;3227;42.654;23.360;2023-02-03T09:31:49;94924.72;;;7.04;52.48
6389;BME280;3227;42.654;23.360;2023-02-03T09:34:17;94951.44;;;7.22;53.76
6389;BME280;3227;42.654;23.360;2023-02-03T09:36:45;94959.09;;;7.24;52.50
6389;BME280;3227;42.654;23.360;2023-02-03T09:39:12;94985.88;;;7.04;52.26
6389;BME280;3227;42.654;23.360;2023-02-03T09:41:50;94981.75;;;6.70;52.74
6389;BME280;3227;42.654;23.360;2023-02-03T09:44:28;94981.25;;;6.47;53.84
6389;BME280;3227;42.654;23.360;2023-02-03T09:46:59;94965.50;;;6.26;53.85
6389;BME280;3227;42.654;23.360;2023-02-03T09:49:35;94984.41;;;6.37;53.87
6389;BME280;3227;42.654;23.360;2023-02-03T09:52:08;94985.72;;;6.57;53.67
6389;BME280;3227;42.654;23.360;2023-02-03T09:54:41;94916.66;;;6.43;51.82
6389;BME280;3227;42.654;23.360;2023-02-03T09:57:19;94968.97;;;6.67;50.46
6389;BME280;3227;42.654;23.360;2023-02-03T09:59:48;94957.06;;;6.66;50.62
6389;BME280;3227;42.654;23.360;2023-02-03T10:02:28;94975.16;;;6.79;50.75
6389;BME280;3227;42.654;23.360;2023-02-03T10:05:02;94969.13;;;6.76;51.49
6389;BME280;3227;42.654;23.360;2023-02-03T10:07:38;94957.16;;;6.70;52.02
6389;BME280;3227;42.654;23.360;2023-02-03T10:10:14;94953.25;;;6.87;51.40
6389;BME280;3227;42.654;23.360;2023-02-03T10:12:53;94965.19;;;6.88;51.20
6389;BME280;3227;42.654;23.360;2023-02-03T10:15:53;94952.00;;;6.69;49.15
6389;BME280;3227;42.654;23.360;2023-02-03T10:18:25;94964.53;;;6.60;50.18
6389;BME280;3227;42.654;23.360;2023-02-03T10:20:55;94957.38;;;6.42;49.72
6389;BME280;3227;42.654;23.360;2023-02-03T10:23:28;94961.84;;;6.15;50.81
6389;BME280;3227;42.654;23.360;2023-02-03T10:25:58;94966.34;;;5.90;51.47
6389;BME280;3227;42.654;23.360;2023-02-03T10:28:29;94953.44;;;5.84;52.68
6389;BME280;3227;42.654;23.360;2023-02-03T10:31:00;94953.47;;;5.86;52.64
6389;BME280;3227;42.654;23.360;2023-02-03T10:33:30;94948.59;;;5.93;53.16
6389;BME280;3227;42.654;23.360;2023-02-03T10:36:02;94947.94;;;6.00;53.93
6389;BME280;3227;42.654;23.360;2023-02-03T10:38:39;94931.19;;;6.08;53.33
6389;BME280;3227;42.654;23.360;2023-02-03T10:41:09;94941.66;;;6.22;51.31
6389;BME280;3227;42.654;23.360;2023-02-03T10:43:36;94941.97;;;6.36;51.02
6389;BME280;3227;42.654;23.360;2023-02-03T10:46:19;94858.28;;;5.74;50.62
6389;BME280;3227;42.654;23.360;2023-02-03T10:48:46;94939.16;;;6.24;50.42
6389;BME280;3227;42.654;23.360;2023-02-03T10:51:19;94941.31;;;6.44;50.70
6389;BME280;3227;42.654;23.360;2023-02-03T10:53:46;94936.09;;;6.38;50.49
6389;BME280;3227;42.654;23.360;2023-02-03T10:56:19;94948.16;;;6.47;51.28
6389;BME280;3227;42.654;23.360;2023-02-03T10:58:49;94934.94;;;6.63;50.15
6389;BME280;3227;42.654;23.360;2023-02-03T11:01:19;94949.16;;;6.54;48.32
6389;BME280;3227;42.654;23.360;2023-02-03T11:03:56;94907.50;;;6.13;48.63
6389;BME280;3227;42.654;23.360;2023-02-03T11:06:24;94950.56;;;6.41;47.19
6389;BME280;3227;42.654;23.360;2023-02-03T11:08:51;94952.13;;;6.36;46.71
6389;BME280;3227;42.654;23.360;2023-02-03T11:11:23;94890.97;;;5.94;45.78
6389;BME280;3227;42.654;23.360;2023-02-03T11:13:54;94938.41;;;6.29;45.86
6389;BME280;3227;42.654;23.360;2023-02-03T11:16:23;94955.00;;;6.49;46.67
6389;BME280;3227;42.654;23.360;2023-02-03T11:18:56;94917.41;;;6.38;46.45
6389;BME280;3227;42.654;23.360;2023-02-03T11:21:28;94947.78;;;6.69;45.90
6389;BME280;3227;42.654;23.360;2023-02-03T11:24:08;94949.59;;;6.73;45.23
6389;BME280;3227;42.654;23.360;2023-02-03T11:26:42;94941.81;;;6.69;45.53
6389;BME280;3227;42.654;23.360;2023-02-03T11:29:16;94923.97;;;6.66;45.38
6389;BME280;3227;42.654;23.360;2023-02-03T11:31:48;94921.47;;;6.69;45.34
6389;BME280;3227;42.654;23.360;2023-02-03T11:34:18;94918.03;;;6.68;43.14
6389;BME280;3227;42.654;23.360;2023-02-03T11:36:48;94920.66;;;6.71;45.69
6389;BME280;3227;42.654;23.360;2023-02-03T11:39:19;94919.94;;;6.77;44.03
6389;BME280;3227;42.654;23.360;2023-02-03T11:41:46;94902.41;;;6.92;43.72
6389;BME280;3227;42.654;23.360;2023-02-03T11:44:17;94894.25;;;7.10;43.58
6389;BME280;3227;42.654;23.360;2023-02-03T11:46:47;94888.44;;;7.17;44.25
6389;BME280;3227;42.654;23.360;2023-02-03T11:50:01;94870.09;;;7.36;43.51
6389;BME280;3227;42.654;23.360;2023-02-03T11:52:47;94890.00;;;7.55;44.26
6389;BME280;3227;42.654;23.360;2023-02-03T11:55:24;94895.75;;;7.45;43.52
6389;BME280;3227;42.654;23.360;2023-02-03T11:58:06;94873.31;;;7.26;42.76
6389;BME280;3227;42.654;23.360;2023-02-03T12:00:43;94838.25;;;7.13;42.64
6389;BME280;3227;42.654;23.360;2023-02-03T12:03:49;94887.97;;;7.38;41.47
6389;BME280;3227;42.654;23.360;2023-02-03T12:09:22;94882.31;;;7.54;41.25
6389;BME280;3227;42.654;23.360;2023-02-03T12:14:48;94879.56;;;6.97;39.42
6389;BME280;3227;42.654;23.360;2023-02-03T12:17:29;94882.34;;;7.09;39.33
6389;BME280;3227;42.654;23.360;2023-02-03T12:20:20;94858.25;;;6.92;39.17
6389;BME280;3227;42.654;23.360;2023-02-03T12:22:55;94892.91;;;6.83;40.26
6389;BME280;3227;42.654;23.360;2023-02-03T12:25:34;94913.09;;;6.76;39.38
6389;BME280;3227;42.654;23.360;2023-02-03T12:28:22;94922.41;;;6.72;40.56
6389;BME280;3227;42.654;23.360;2023-02-03T12:30:55;94911.75;;;6.51;39.47
6389;BME280;3227;42.654;23.360;2023-02-03T12:33:29;94917.44;;;6.39;39.88
6389;BME280;3227;42.654;23.360;2023-02-03T12:36:04;94911.94;;;6.60;40.62
6389;BME280;3227;42.654;23.360;2023-02-03T12:38:53;94910.16;;;6.56;40.11
6389;BME280;3227;42.654;23.360;2023-02-03T12:41:26;94908.53;;;6.60;40.79
6389;BME280;3227;42.654;23.360;2023-02-03T12:43:58;94900.94;;;6.61;40.45
6389;BME280;3227;42.654;23.360;2023-02-03T12:46:29;94887.81;;;6.43;41.42
6389;BME280;3227;42.654;23.360;2023-02-03T12:49:18;94894.09;;;6.20;41.42
6389;BME280;3227;42.654;23.360;2023-02-03T12:51:50;94884.00;;;6.23;42.35
6389;BME280;3227;42.654;23.360;2023-02-03T12:54:30;94875.88;;;6.39;42.06
6389;BME280;3227;42.654;23.360;2023-02-03T12:57:07;94880.09;;;6.38;42.55
6389;BME280;3227;42.654;23.360;2023-02-03T12:59:39;94875.97;;;6.45;42.10
6389;BME280;3227;42.654;23.360;2023-02-03T13:02:15;94870.16;;;6.49;42.00
6389;BME280;3227;42.654;23.360;2023-02-03T13:04:50;94859.66;;;6.35;42.65
6389;BME280;3227;42.654;23.360;2023-02-03T13:07:23;94866.63;;;6.44;43.41
6389;BME280;3227;42.654;23.360;2023-02-03T13:09:57;94871.16;;;6.57;42.93
6389;BME280;3227;42.654;23.360;2023-02-03T13:12:29;94866.28;;;6.69;43.15
6389;BME280;3227;42.654;23.360;2023-02-03T13:14:59;94847.78;;;6.78;43.03
6389;BME280;3227;42.654;23.360;2023-02-03T13:17:36;94871.69;;;6.84;43.37
6389;BME280;3227;42.654;23.360;2023-02-03T13:20:13;94870.00;;;6.85;44.33
6389;BME280;3227;42.654;23.360;2023-02-03T13:22:44;94869.13;;;6.83;44.44
6389;BME280;3227;42.654;23.360;2023-02-03T13:25:16;94869.13;;;6.84;44.71
6389;BME280;3227;42.654;23.360;2023-02-03T13:27:49;94868.81;;;6.68;44.69
6389;BME280;3227;42.654;23.360;2023-02-03T13:30:34;94866.28;;;6.69;45.59
6389;BME280;3227;42.654;23.360;2023-02-03T13:33:35;94867.53;;;6.46;46.11
6389;BME280;3227;42.654;23.360;2023-02-03T13:36:21;94863.75;;;6.29;46.20
6389;BME280;3227;42.654;23.360;2023-02-03T13:41:47;94874.66;;;6.62;45.22
6389;BME280;3227;42.654;23.360;2023-02-03T13:44:16;94868.22;;;6.39;45.15
6389;BME280;3227;42.654;23.360;2023-02-03T13:46:46;94876.38;;;6.23;46.25
6389;BME280;3227;42.654;23.360;2023-02-03T13:49:21;94869.31;;;6.52;46.37